Terminal Aerodrome Forecast
Issued by NWS Wilmington, OH

Current Version | Previous Version | Graphics & Text | Print | Product List | Glossary On
Versions: 1 2 3 4 5 6 7 8 9 10 11 12 13 14 15 16 17 18 19 20 21
000
FTUS41 KILN 251100
TAFILN
TAF
KILN 251130Z 2512/2612 23011KT P6SM SCT030
     FM251400 25012G20KT P6SM BKN035
     FM252100 27010KT P6SM BKN035
     FM252300 VRB03KT P6SM BKN035=

USA.gov is the U.S. government's official web portal to all federal, state and local government web resources and services.